Борисполь аэропорт (IATA: KBP)

Обсуждения, комментарии...
Аватара пользователя
denya24
A380
Сообщения: 1001
Зарегистрирован: 27 мар 2019, 17:27
Откуда: HRK > IEV
Благодарил (а): 412 раз
Поблагодарили: 474 раза
Контактная информация:

Re: Борисполь аэропорт (IATA: KBP)

Сообщение denya24 »

В Борисполе во второй половине дня сегодня прям коллапс - все рейсы с задержкой. У меня вылет больше, чем на час задержался. Долго ждали автобус, потом технику с антифризом, потом ещё тягач для буксировки. Погода шепчет
Аватара пользователя
katso
Airbus A340
Сообщения: 734
Зарегистрирован: 11 ноя 2015, 13:44
Откуда: IEV
Благодарил (а): 126 раз
Поблагодарили: 227 раз
Контактная информация:

Re: Борисполь аэропорт (IATA: KBP)

Сообщение katso »

denya24 писал(а):
15 янв 2022, 01:26
В Борисполе во второй половине дня сегодня прям коллапс - все рейсы с задержкой. У меня вылет больше, чем на час задержался. Долго ждали автобус, потом технику с антифризом, потом ещё тягач для буксировки. Погода шепчет
Ну, был боковой ветер порывы до 17м\с временами до 21м\с, хорошо что вообще летают

METAR UKBB 141830Z 31009G17MPS 9999 -SN SCT028 BKN040 02/M02 Q0997 TEMPO 30014G21MPS
Ответить

Кто сейчас на конференции

Сейчас этот форум просматривают: нет зарегистрированных пользователей и 4 гостя